createdAt,value
2023-01-19T00:01:32.391Z,-1.52
2023-01-19T00:04:00.389Z,-1.57
2023-01-19T00:06:30.129Z,-1.57
2023-01-19T00:08:58.190Z,-1.70
2023-01-19T00:11:26.223Z,-1.71
2023-01-19T00:13:54.190Z,-1.63
2023-01-19T00:16:23.690Z,-1.66
2023-01-19T00:18:53.218Z,-1.66
2023-01-19T00:21:22.656Z,-1.64
2023-01-19T00:23:52.758Z,-1.61
2023-01-19T00:26:23.100Z,-1.71
2023-01-19T00:28:52.908Z,-1.69
2023-01-19T00:31:21.761Z,-1.70
2023-01-19T00:33:51.449Z,-1.77
2023-01-19T00:36:20.615Z,-1.89
2023-01-19T00:38:48.629Z,-1.86
2023-01-19T00:41:18.395Z,-1.90
2023-01-19T00:43:45.471Z,-1.87
2023-01-19T00:46:13.534Z,-1.83
2023-01-19T00:48:41.514Z,-1.80
2023-01-19T00:51:09.441Z,-1.85
2023-01-19T00:53:37.492Z,-1.84
2023-01-19T00:56:06.056Z,-1.89
2023-01-19T00:58:35.400Z,-1.98
2023-01-19T01:01:04.847Z,-1.97
2023-01-19T01:03:33.747Z,-2.01
2023-01-19T01:06:01.678Z,-2.03
2023-01-19T01:08:29.695Z,-1.97
2023-01-19T01:10:58.117Z,-2.02
2023-01-19T01:13:27.900Z,-2.07
2023-01-19T01:15:58.016Z,-2.05
2023-01-19T01:18:26.415Z,-2.14
2023-01-19T01:21:01.175Z,-2.18
2023-01-19T01:23:29.165Z,-2.21
2023-01-19T01:25:57.173Z,-2.22
2023-01-19T01:28:26.223Z,-2.24
2023-01-19T01:30:55.020Z,-2.27
2023-01-19T01:33:39.837Z,-2.30
2023-01-19T01:36:10.407Z,-2.21
2023-01-19T01:38:38.603Z,-2.33
2023-01-19T01:41:06.812Z,-2.37
2023-01-19T01:43:51.583Z,-2.32
2023-01-19T01:46:19.908Z,-2.34
2023-01-19T01:48:55.959Z,-2.34
2023-01-19T01:51:30.693Z,-2.38
2023-01-19T01:54:14.744Z,-2.37
2023-01-19T01:56:47.828Z,-2.44
2023-01-19T01:59:26.629Z,-2.44
2023-01-19T02:02:15.835Z,-2.45
2023-01-19T02:04:51.748Z,-2.47
2023-01-19T02:07:47.949Z,-2.47
2023-01-19T02:10:34.185Z,-2.49
2023-01-19T02:13:18.637Z,-2.51
2023-01-19T02:15:46.679Z,-2.50
2023-01-19T02:18:15.146Z,-2.45
2023-01-19T02:20:54.669Z,-2.53
2023-01-19T02:23:39.108Z,-2.50
2023-01-19T02:26:10.546Z,-2.52
2023-01-19T02:28:42.691Z,-2.55
2023-01-19T02:31:11.462Z,-2.54
2023-01-19T02:33:39.618Z,-2.61
2023-01-19T02:36:12.000Z,-2.54
2023-01-19T02:38:45.358Z,-2.58
2023-01-19T02:41:20.584Z,-2.64
2023-01-19T02:43:50.999Z,-2.64
2023-01-19T02:46:19.128Z,-2.59
2023-01-19T02:48:47.086Z,-2.66
2023-01-19T02:51:19.130Z,-2.68
2023-01-19T02:54:14.522Z,-2.74
2023-01-19T02:57:07.343Z,-2.72
2023-01-19T02:59:57.953Z,-2.68
2023-01-19T03:02:38.555Z,-2.75
2023-01-19T03:05:35.200Z,-2.73
2023-01-19T03:08:14.407Z,-2.71
2023-01-19T03:10:53.329Z,-2.67
2023-01-19T03:13:34.477Z,-2.74
2023-01-19T03:16:15.174Z,-2.78
2023-01-19T03:18:48.998Z,-2.73
2023-01-19T03:21:20.677Z,-2.75
2023-01-19T03:23:52.410Z,-2.82
2023-01-19T03:26:31.372Z,-2.87
2023-01-19T03:29:04.325Z,-2.89
2023-01-19T03:31:35.193Z,-2.87
2023-01-19T03:34:09.070Z,-2.88
2023-01-19T03:36:43.492Z,-2.85
2023-01-19T03:39:15.047Z,-2.88
2023-01-19T03:41:48.298Z,-2.87
2023-01-19T03:44:17.674Z,-2.88
2023-01-19T03:46:46.750Z,-2.92
2023-01-19T03:49:15.253Z,-2.93
2023-01-19T03:51:43.519Z,-2.96
2023-01-19T03:54:12.088Z,-2.96
2023-01-19T03:56:40.141Z,-2.97
2023-01-19T03:59:09.467Z,-2.98
2023-01-19T04:01:37.288Z,-2.99
2023-01-19T04:04:05.384Z,-2.99
2023-01-19T04:06:33.314Z,-3.00
2023-01-19T04:09:01.229Z,-3.00
2023-01-19T04:11:29.154Z,-2.97
2023-01-19T04:13:57.145Z,-2.97
2023-01-19T04:16:26.611Z,-2.95
2023-01-19T04:18:54.545Z,-2.98
2023-01-19T04:21:22.605Z,-2.99
2023-01-19T04:23:50.813Z,-2.96
2023-01-19T04:26:18.851Z,-3.06
2023-01-19T04:28:46.925Z,-3.02
2023-01-19T04:31:14.858Z,-3.08
2023-01-19T04:33:44.182Z,-3.02
2023-01-19T04:36:12.035Z,-3.02
2023-01-19T04:38:39.914Z,-3.04
2023-01-19T04:41:07.895Z,-3.00
2023-01-19T04:43:35.761Z,-3.02
2023-01-19T04:46:03.807Z,-3.00
2023-01-19T04:48:32.041Z,-3.06
2023-01-19T04:51:01.312Z,-3.02
2023-01-19T04:53:29.357Z,-3.08
2023-01-19T04:55:57.487Z,-3.05
2023-01-19T04:58:25.500Z,-3.05
2023-01-19T05:00:53.685Z,-2.98
2023-01-19T05:03:21.804Z,-3.01
2023-01-19T05:05:49.856Z,-3.03
2023-01-19T05:08:19.179Z,-3.06
2023-01-19T05:10:46.986Z,-3.06
2023-01-19T05:13:15.102Z,-2.88
2023-01-19T05:15:42.999Z,-2.94
2023-01-19T05:18:10.944Z,-3.00
2023-01-19T05:20:39.604Z,-3.00
2023-01-19T05:23:07.559Z,-3.04
2023-01-19T05:25:36.923Z,-3.04
2023-01-19T05:28:04.959Z,-3.08
2023-01-19T05:30:32.895Z,-3.06
2023-01-19T05:33:01.305Z,-3.08
2023-01-19T05:35:35.591Z,-3.09
2023-01-19T05:38:04.945Z,-3.08
2023-01-19T05:40:33.546Z,-3.07
2023-01-19T05:43:05.217Z,-3.08
2023-01-19T05:45:34.168Z,-3.11
2023-01-19T05:48:02.657Z,-3.13
2023-01-19T05:50:30.669Z,-3.12
2023-01-19T05:53:00.232Z,-3.10
2023-01-19T05:55:29.726Z,-3.07
2023-01-19T05:57:57.676Z,-3.04
2023-01-19T06:00:27.643Z,-3.12
2023-01-19T06:02:55.708Z,-3.11
2023-01-19T06:05:23.731Z,-3.09
2023-01-19T06:07:51.584Z,-3.11
2023-01-19T06:10:19.707Z,-3.15
2023-01-19T06:12:47.638Z,-3.16
2023-01-19T06:15:15.661Z,-3.11
2023-01-19T06:17:45.025Z,-3.06
2023-01-19T06:20:14.400Z,-3.09
2023-01-19T06:22:42.231Z,-3.03
2023-01-19T06:25:11.831Z,-2.99
2023-01-19T06:27:40.842Z,-3.05
2023-01-19T06:30:10.874Z,-3.12
2023-01-19T06:32:38.791Z,-3.12
2023-01-19T06:35:09.036Z,-3.00
2023-01-19T06:37:37.925Z,-3.06
2023-01-19T06:40:07.576Z,-3.11
2023-01-19T06:42:36.540Z,-3.06
2023-01-19T06:45:04.786Z,-3.11
2023-01-19T06:47:34.345Z,-3.14
2023-01-19T06:50:03.389Z,-3.08
2023-01-19T06:52:32.723Z,-3.12
2023-01-19T06:55:00.490Z,-3.13
2023-01-19T06:57:28.449Z,-3.13
2023-01-19T06:59:58.511Z,-3.11
2023-01-19T07:02:28.549Z,-3.08
2023-01-19T07:04:57.143Z,-3.11
2023-01-19T07:07:25.178Z,-3.10
2023-01-19T07:09:55.013Z,-3.05
2023-01-19T07:12:23.175Z,-3.12
2023-01-19T07:14:51.638Z,-3.09
2023-01-19T07:17:20.644Z,-3.07
2023-01-19T07:19:48.557Z,-3.03
2023-01-19T07:22:16.491Z,-3.08
2023-01-19T07:24:44.567Z,-2.96
2023-01-19T07:27:14.682Z,-3.00
2023-01-19T07:29:42.902Z,-2.98
2023-01-19T07:32:10.916Z,-3.07
2023-01-19T07:34:38.826Z,-3.08
2023-01-19T07:37:06.751Z,-3.05
2023-01-19T07:39:36.582Z,-3.00
2023-01-19T07:42:04.921Z,-3.02
2023-01-19T07:44:34.211Z,-3.01
2023-01-19T07:47:01.969Z,-2.95
2023-01-19T07:49:30.003Z,-2.95
2023-01-19T07:51:57.943Z,-2.93
2023-01-19T07:54:26.010Z,-2.87
2023-01-19T07:56:55.694Z,-2.80
2023-01-19T07:59:23.657Z,-2.80
2023-01-19T08:01:54.110Z,-2.78
2023-01-19T08:04:22.681Z,-2.78
2023-01-19T08:06:50.755Z,-2.71
2023-01-19T08:09:19.025Z,-2.71
2023-01-19T08:11:47.142Z,-2.69
2023-01-19T08:14:15.057Z,-2.67
2023-01-19T08:16:43.033Z,-2.69
2023-01-19T08:19:12.416Z,-2.56
2023-01-19T08:21:40.222Z,-2.55
2023-01-19T08:24:18.413Z,-2.52
2023-01-19T08:26:46.406Z,-2.42
2023-01-19T08:29:14.653Z,-2.47
2023-01-19T08:31:43.803Z,-2.40
2023-01-19T08:34:13.136Z,-2.31
2023-01-19T08:36:41.114Z,-2.28
2023-01-19T08:39:09.076Z,-2.19
2023-01-19T08:41:37.049Z,-2.16
2023-01-19T08:44:05.464Z,-2.13
2023-01-19T08:46:33.533Z,-2.07
2023-01-19T08:49:01.653Z,-1.94
2023-01-19T08:51:31.020Z,-1.97
2023-01-19T08:53:58.790Z,-1.91
2023-01-19T08:56:26.881Z,-1.90
2023-01-19T08:59:08.100Z,-1.79
2023-01-19T09:01:37.698Z,-1.79
2023-01-19T09:04:06.013Z,-1.69
2023-01-19T09:06:35.342Z,-1.58
2023-01-19T09:09:03.370Z,-1.50
2023-01-19T09:11:31.868Z,-1.44
2023-01-19T09:14:00.650Z,-1.44
2023-01-19T09:16:29.280Z,-1.39
2023-01-19T09:18:57.302Z,-1.39
2023-01-19T09:21:25.276Z,-1.26
2023-01-19T09:23:54.694Z,-1.23
2023-01-19T09:26:23.708Z,-1.19
2023-01-19T09:28:51.753Z,-1.21
2023-01-19T09:31:20.116Z,-1.08
2023-01-19T09:33:48.219Z,-1.05
2023-01-19T09:36:16.177Z,-0.95
2023-01-19T09:38:44.064Z,-0.94
2023-01-19T09:41:22.317Z,-0.81
2023-01-19T09:43:56.913Z,-0.84
2023-01-19T09:46:35.383Z,-0.70
2023-01-19T09:49:14.478Z,-0.68
2023-01-19T09:51:47.421Z,-0.63
2023-01-19T09:54:18.422Z,-0.54
2023-01-19T09:56:52.728Z,-0.48
2023-01-19T09:59:25.469Z,-0.43
2023-01-19T10:02:08.888Z,-0.40
2023-01-19T10:04:41.994Z,-0.30
2023-01-19T10:07:37.095Z,-0.18
2023-01-19T10:10:21.896Z,-0.18
2023-01-19T10:13:23.739Z,-0.26
2023-01-19T10:16:03.929Z,-0.19
2023-01-19T10:18:47.723Z,-0.12
2023-01-19T10:21:24.194Z,-0.12
2023-01-19T10:23:59.690Z,-0.06
2023-01-19T10:26:34.590Z,-0.05
2023-01-19T10:29:10.962Z,0.08
2023-01-19T10:31:45.563Z,0.12
2023-01-19T10:34:21.589Z,0.20
2023-01-19T10:36:58.517Z,0.29
2023-01-19T10:39:26.733Z,0.26
2023-01-19T10:41:55.386Z,0.36
2023-01-19T10:44:30.565Z,0.30
2023-01-19T10:47:01.996Z,0.31
2023-01-19T10:49:36.537Z,0.27
2023-01-19T10:52:07.860Z,0.41
2023-01-19T10:54:38.871Z,0.50
2023-01-19T10:57:10.975Z,0.46
2023-01-19T10:59:51.439Z,0.50
2023-01-19T11:02:22.311Z,0.52
2023-01-19T11:04:53.908Z,0.60
2023-01-19T11:07:25.142Z,0.59
2023-01-19T11:10:22.479Z,0.66
2023-01-19T11:13:02.316Z,0.59
2023-01-19T11:15:36.116Z,0.67
2023-01-19T11:18:07.588Z,0.79
2023-01-19T11:20:50.523Z,1.15
2023-01-19T11:23:27.188Z,1.38
2023-01-19T11:26:00.510Z,1.50
2023-01-19T11:28:32.830Z,1.57
2023-01-19T11:31:17.222Z,1.68
2023-01-19T11:33:53.003Z,1.64
2023-01-19T11:36:23.975Z,1.59
2023-01-19T11:38:54.945Z,1.50
2023-01-19T11:41:28.426Z,1.51
2023-01-19T11:44:03.863Z,1.48
2023-01-19T11:46:38.321Z,1.52
2023-01-19T11:49:16.532Z,1.57
2023-01-19T11:51:57.684Z,1.55
2023-01-19T11:54:30.813Z,1.46
2023-01-19T11:57:02.282Z,1.50
2023-01-19T11:59:30.317Z,1.57
2023-01-19T12:02:12.357Z,1.53
2023-01-19T12:04:44.378Z,1.61
2023-01-19T12:07:18.914Z,1.65
2023-01-19T12:09:53.232Z,1.74
2023-01-19T12:12:31.804Z,1.72
2023-01-19T12:15:06.808Z,1.81
2023-01-19T12:17:43.056Z,1.83
2023-01-19T12:20:27.895Z,1.81
2023-01-19T12:23:08.912Z,1.85
2023-01-19T12:25:55.185Z,1.89
2023-01-19T12:28:32.220Z,1.92
2023-01-19T12:31:02.644Z,1.98
2023-01-19T12:33:38.443Z,2.07
2023-01-19T12:36:14.105Z,2.00
2023-01-19T12:38:52.256Z,2.10
2023-01-19T12:41:31.145Z,2.10
2023-01-19T12:44:33.947Z,2.21
2023-01-19T12:47:20.180Z,2.19
2023-01-19T12:49:53.684Z,2.22
2023-01-19T12:52:30.719Z,2.18
2023-01-19T12:55:05.922Z,2.22
2023-01-19T12:57:40.065Z,2.26
2023-01-19T13:00:30.904Z,2.18
2023-01-19T13:03:00.857Z,2.21
2023-01-19T13:06:00.375Z,2.30
2023-01-19T13:08:31.224Z,2.31
2023-01-19T13:11:23.806Z,2.20
2023-01-19T13:14:36.573Z,2.18
2023-01-19T13:17:25.204Z,2.15
2023-01-19T13:20:18.051Z,2.21
2023-01-19T13:23:20.168Z,2.21
2023-01-19T13:25:59.895Z,2.27
2023-01-19T13:28:37.948Z,2.26
2023-01-19T13:31:07.211Z,2.27
2023-01-19T13:33:47.709Z,2.31
2023-01-19T13:36:26.531Z,2.29
2023-01-19T13:38:58.966Z,2.24
2023-01-19T13:41:31.648Z,2.18
2023-01-19T13:44:11.061Z,2.32
2023-01-19T13:46:40.605Z,2.29
2023-01-19T13:49:18.285Z,2.31
2023-01-19T13:51:48.291Z,2.35
2023-01-19T13:54:19.133Z,2.37
2023-01-19T13:56:51.003Z,2.35
2023-01-19T13:59:20.726Z,2.37
2023-01-19T14:01:51.030Z,2.31
2023-01-19T14:04:31.627Z,2.22
2023-01-19T14:07:05.764Z,2.14
2023-01-19T14:09:35.272Z,2.23
2023-01-19T14:12:14.811Z,2.21
2023-01-19T14:14:43.586Z,2.18
2023-01-19T14:17:25.659Z,2.20
2023-01-19T14:19:56.725Z,2.19
2023-01-19T14:22:40.587Z,2.25
2023-01-19T14:25:32.222Z,2.18
2023-01-19T14:28:39.290Z,2.09
2023-01-19T14:31:22.221Z,2.14
2023-01-19T14:33:53.079Z,2.07
2023-01-19T14:36:34.483Z,2.01
2023-01-19T14:39:06.979Z,2.06
2023-01-19T14:41:44.971Z,1.99
2023-01-19T14:44:20.875Z,1.89
2023-01-19T14:46:50.288Z,1.95
2023-01-19T14:49:22.046Z,1.87
2023-01-19T14:51:51.507Z,1.90
2023-01-19T14:54:30.299Z,1.88
2023-01-19T14:56:59.745Z,1.84
2023-01-19T14:59:27.838Z,1.81
2023-01-19T15:01:55.906Z,1.79
2023-01-19T15:04:25.359Z,1.73
2023-01-19T15:06:53.297Z,1.72
2023-01-19T15:09:21.298Z,1.70
2023-01-19T15:11:52.684Z,1.77
2023-01-19T15:14:22.917Z,1.60
2023-01-19T15:16:51.520Z,1.60
2023-01-19T15:19:21.483Z,1.53
2023-01-19T15:21:49.458Z,1.57
2023-01-19T15:24:18.117Z,1.49
2023-01-19T15:26:46.645Z,1.50
2023-01-19T15:29:26.056Z,1.49
2023-01-19T15:31:54.415Z,1.48
2023-01-19T15:34:22.329Z,1.41
2023-01-19T15:36:50.246Z,1.29
2023-01-19T15:39:18.206Z,1.62
2023-01-19T15:41:46.229Z,1.76
2023-01-19T15:44:14.114Z,1.50
2023-01-19T15:46:43.461Z,1.35
2023-01-19T15:49:11.397Z,1.23
2023-01-19T15:51:39.370Z,1.24
2023-01-19T15:54:10.831Z,1.13
2023-01-19T15:56:38.818Z,1.26
2023-01-19T15:59:06.770Z,1.18
2023-01-19T16:01:35.304Z,1.04
2023-01-19T16:04:09.437Z,1.06
2023-01-19T16:06:37.682Z,0.93
2023-01-19T16:09:05.853Z,0.87
2023-01-19T16:11:37.660Z,0.82
2023-01-19T16:14:05.653Z,0.84
2023-01-19T16:16:34.425Z,0.74
2023-01-19T16:19:03.839Z,0.69
2023-01-19T16:21:31.894Z,0.70
2023-01-19T16:23:59.838Z,0.72
2023-01-19T16:26:34.212Z,0.69
2023-01-19T16:29:07.846Z,0.99
2023-01-19T16:31:40.276Z,0.85
2023-01-19T16:34:10.844Z,0.87
2023-01-19T16:36:41.530Z,0.85
2023-01-19T16:39:13.271Z,0.90
2023-01-19T16:41:42.447Z,0.89
2023-01-19T16:44:12.505Z,0.87
2023-01-19T16:46:43.355Z,0.97
2023-01-19T16:49:17.211Z,0.92
2023-01-19T16:51:47.331Z,0.80
2023-01-19T16:54:17.889Z,0.90
2023-01-19T16:56:45.961Z,0.97
2023-01-19T16:59:16.765Z,1.00
2023-01-19T17:01:46.418Z,1.02
2023-01-19T17:04:15.908Z,0.93
2023-01-19T17:06:44.275Z,0.98
2023-01-19T17:09:12.194Z,0.91
2023-01-19T17:11:41.197Z,0.92
2023-01-19T17:14:13.197Z,0.91
2023-01-19T17:16:42.130Z,0.86
2023-01-19T17:19:14.758Z,0.94
2023-01-19T17:21:45.631Z,0.93
2023-01-19T17:24:14.292Z,0.98
2023-01-19T17:26:45.850Z,1.01
2023-01-19T17:29:14.247Z,0.92
2023-01-19T17:31:42.816Z,0.94
2023-01-19T17:34:11.114Z,0.93
2023-01-19T17:41:23.597Z,0.95
2023-01-19T17:48:46.643Z,1.03
2023-01-19T17:51:14.690Z,1.08
2023-01-19T17:53:45.754Z,1.12
2023-01-19T17:56:16.199Z,1.14
2023-01-19T17:58:46.183Z,1.20
2023-01-19T18:01:22.338Z,1.19
2023-01-19T18:03:53.785Z,1.16
2023-01-19T18:06:26.478Z,1.23
2023-01-19T18:09:03.227Z,1.28
2023-01-19T18:11:40.272Z,1.32
2023-01-19T18:14:17.738Z,1.37
2023-01-19T18:16:49.785Z,1.35
2023-01-19T18:19:24.280Z,1.38
2023-01-19T18:22:06.607Z,1.31
2023-01-19T18:24:39.538Z,1.44
2023-01-19T18:27:12.906Z,1.44
2023-01-19T18:29:48.265Z,1.42
2023-01-19T18:32:25.814Z,1.41
2023-01-19T18:35:03.525Z,1.38
2023-01-19T18:37:37.313Z,1.39
2023-01-19T18:44:22.269Z,1.43
2023-01-19T18:46:53.939Z,1.41
2023-01-19T18:50:56.091Z,1.37
2023-01-19T18:53:36.435Z,1.42
2023-01-19T18:56:05.697Z,1.38
2023-01-19T18:58:37.762Z,1.37
2023-01-19T19:01:17.532Z,1.39
2023-01-19T19:03:47.114Z,1.47
2023-01-19T19:06:15.657Z,1.37
2023-01-19T19:08:44.159Z,1.41
2023-01-19T19:11:14.090Z,1.42
2023-01-19T19:13:42.395Z,1.40
2023-01-19T19:16:12.754Z,1.44
2023-01-19T19:18:41.077Z,1.46
2023-01-19T19:21:14.328Z,1.40
2023-01-19T19:23:44.310Z,1.44
2023-01-19T19:26:15.712Z,1.36
2023-01-19T19:28:45.710Z,1.30
2023-01-19T19:31:18.018Z,1.44
2023-01-19T19:33:46.116Z,1.47
2023-01-19T19:36:16.027Z,1.42
2023-01-19T19:38:44.495Z,1.44
2023-01-19T19:41:15.753Z,1.45
2023-01-19T19:43:43.869Z,1.48
2023-01-19T19:46:14.472Z,1.39
2023-01-19T19:48:42.580Z,1.47
2023-01-19T19:51:18.429Z,1.52
2023-01-19T19:53:51.179Z,1.53
2023-01-19T19:56:22.081Z,1.43
2023-01-19T19:58:51.457Z,1.47
2023-01-19T20:01:25.230Z,1.46
2023-01-19T20:03:54.861Z,1.46
2023-01-19T20:06:26.570Z,1.47
2023-01-19T20:08:57.865Z,1.42
2023-01-19T20:11:29.196Z,1.38
2023-01-19T20:13:57.200Z,1.41
2023-01-19T20:16:27.422Z,1.42
2023-01-19T20:18:55.582Z,1.42
2023-01-19T20:21:27.349Z,1.49
2023-01-19T20:24:00.645Z,1.48
2023-01-19T20:26:31.893Z,1.42
2023-01-19T20:29:03.125Z,1.40
2023-01-19T20:31:34.101Z,1.36
2023-01-19T20:34:07.057Z,1.38
2023-01-19T20:36:41.183Z,1.48
2023-01-19T20:39:11.282Z,1.43
2023-01-19T20:41:44.969Z,1.53
2023-01-19T20:44:15.233Z,1.54
2023-01-19T20:46:44.135Z,1.56
2023-01-19T20:49:12.466Z,1.49
2023-01-19T20:51:43.252Z,1.54
2023-01-19T20:54:14.228Z,1.47
2023-01-19T20:56:43.622Z,1.51
2023-01-19T20:59:13.127Z,1.48
2023-01-19T21:01:42.605Z,1.55
2023-01-19T21:04:11.107Z,2.33
2023-01-19T21:06:39.442Z,2.59
2023-01-19T21:09:08.458Z,2.52
2023-01-19T21:11:39.485Z,2.65
2023-01-19T21:14:08.284Z,3.02
2023-01-19T21:16:38.329Z,3.01
2023-01-19T21:19:06.882Z,2.51
2023-01-19T21:21:34.836Z,2.18
2023-01-19T21:24:04.487Z,1.92
2023-01-19T21:26:33.409Z,1.84
2023-01-19T21:29:04.440Z,1.83
2023-01-19T21:31:32.794Z,1.74
2023-01-19T21:34:00.988Z,1.77
2023-01-19T21:36:28.928Z,1.73
2023-01-19T21:39:00.383Z,1.71
2023-01-19T21:41:29.829Z,1.63
2023-01-19T21:43:58.561Z,1.73
2023-01-19T21:46:29.448Z,1.64
2023-01-19T21:48:58.865Z,1.66
2023-01-19T21:51:27.189Z,1.65
2023-01-19T21:53:59.333Z,1.63
2023-01-19T21:56:28.698Z,1.63
2023-01-19T21:58:58.492Z,1.71
2023-01-19T22:01:28.106Z,1.67
2023-01-19T22:03:57.390Z,1.64
2023-01-19T22:06:27.882Z,1.62
2023-01-19T22:08:57.811Z,1.58
2023-01-19T22:11:26.418Z,1.67
2023-01-19T22:13:54.826Z,1.61
2023-01-19T22:16:24.393Z,1.69
2023-01-19T22:18:57.528Z,1.67
2023-01-19T22:21:28.301Z,1.69
2023-01-19T22:23:59.786Z,1.68
2023-01-19T22:26:29.732Z,1.75
2023-01-19T22:29:00.395Z,1.71
2023-01-19T22:31:30.667Z,1.71
2023-01-19T22:34:00.221Z,1.80
2023-01-19T22:36:30.974Z,1.78
2023-01-19T22:39:01.851Z,1.78
2023-01-19T22:41:31.790Z,1.79
2023-01-19T22:44:01.852Z,1.83
2023-01-19T22:46:33.441Z,1.79
2023-01-19T22:49:03.629Z,1.77
2023-01-19T22:51:34.434Z,1.74
2023-01-19T22:54:02.741Z,1.75
2023-01-19T22:56:33.580Z,1.68
2023-01-19T22:59:02.291Z,1.74
2023-01-19T23:01:34.114Z,1.64
2023-01-19T23:04:05.821Z,1.60
2023-01-19T23:06:37.010Z,1.63
2023-01-19T23:09:13.616Z,1.66
2023-01-19T23:11:44.445Z,1.60
2023-01-19T23:14:16.772Z,1.62
2023-01-19T23:16:44.764Z,1.73
2023-01-19T23:19:17.070Z,1.59
2023-01-19T23:21:46.135Z,1.73
2023-01-19T23:24:14.152Z,1.71
2023-01-19T23:26:42.110Z,1.61
2023-01-19T23:29:15.215Z,1.69
2023-01-19T23:31:46.695Z,1.69
2023-01-19T23:34:17.404Z,1.62
2023-01-19T23:36:46.160Z,1.71
2023-01-19T23:39:16.985Z,1.69
2023-01-19T23:41:45.158Z,1.67
2023-01-19T23:44:13.268Z,1.70
2023-01-19T23:46:41.344Z,1.82
2023-01-19T23:49:09.279Z,1.71
2023-01-19T23:51:40.638Z,1.63
2023-01-19T23:54:09.121Z,1.62
2023-01-19T23:56:39.345Z,1.67
2023-01-19T23:59:10.115Z,1.70
